createdAt,value
2022-12-11T00:04:16.553Z,1013.28
2022-12-11T00:32:38.737Z,1013.35
2022-12-11T01:00:39.743Z,1013.55
2022-12-11T01:29:00.175Z,1013.81
2022-12-11T01:57:13.354Z,1013.87
2022-12-11T02:26:04.616Z,1014.16
2022-12-11T02:54:49.668Z,1014.17
2022-12-11T03:23:40.394Z,1014.25
2022-12-11T03:52:46.787Z,1014.16
2022-12-11T04:21:08.310Z,1014.07
2022-12-11T04:50:00.922Z,1014.08
2022-12-11T05:18:58.471Z,1013.77
2022-12-11T05:47:57.194Z,1013.39
2022-12-11T06:16:53.502Z,1013.35
2022-12-11T06:45:13.934Z,1013.28
2022-12-11T07:13:51.218Z,1013.47
2022-12-11T07:42:46.929Z,1013.75
2022-12-11T08:11:07.567Z,1013.83
2022-12-11T08:40:07.162Z,1013.74
2022-12-11T09:09:20.146Z,1013.58
2022-12-11T09:37:43.273Z,1013.5
2022-12-11T10:06:46.500Z,1013.19
2022-12-11T10:35:37.563Z,1012.64
2022-12-11T11:04:40.932Z,1012.52
2022-12-11T11:33:24.528Z,1012.31
2022-12-11T12:02:21.534Z,1012.03
2022-12-11T12:31:17.081Z,1011.96
2022-12-11T13:00:01.434Z,1011.94
2022-12-11T13:28:54.213Z,1011.9
2022-12-11T13:57:33.122Z,1012.15
2022-12-11T14:26:27.504Z,1012.51
2022-12-11T14:55:24.264Z,1012.59
2022-12-11T15:23:41.910Z,1012.57
2022-12-11T15:51:55.624Z,1012.58
2022-12-11T16:20:24.083Z,1012.6
2022-12-11T16:48:43.410Z,1012.42
2022-12-11T17:17:01.216Z,1012.34
2022-12-11T17:45:16.446Z,1012.23
2022-12-11T18:13:30.804Z,1012.2
2022-12-11T18:41:43.600Z,1012.09
2022-12-11T19:09:57.076Z,1012.47
2022-12-11T19:38:13.105Z,1012.35
2022-12-11T20:06:28.320Z,1012.47
2022-12-11T20:34:31.408Z,1012.73
2022-12-11T21:02:44.288Z,1012.82
2022-12-11T21:31:12.711Z,1012.73
2022-12-11T21:59:16.256Z,1012.71
2022-12-11T22:27:42.357Z,1012.74
2022-12-11T22:55:39.711Z,1012.67
2022-12-11T23:23:59.156Z,1012.58
2022-12-11T23:52:07.281Z,1012.76
